Time;durP1;ratioP1;P1;durP2;ratioP2;P2;SDS_P1;SDS_P2;PMS_P1;PMS_P2;Temp;Humidity;BMP_temperature;BMP_pressure;BME280_temperature;BME280_humidity;BME280_pressure;Samples;Min_cycle;Max_cycle;Signal;HPM_P1;HPM_P2
2023/08/09 00:00:42;;;;;;;16.15;6.18;;;;;;;11.16;100.00;99418.72;5137584;28;20158;-67
2023/08/09 00:03:09;;;;;;;13.15;5.53;;;;;;;11.15;100.00;99422.59;5137621;28;20361;-64
2023/08/09 00:05:35;;;;;;;13.40;5.93;;;;;;;11.12;100.00;99420.59;5137483;28;20468;-66
2023/08/09 00:08:01;;;;;;;13.95;5.65;;;;;;;11.14;100.00;99417.50;5137296;27;20047;-64
2023/08/09 00:10:28;;;;;;;13.25;6.22;;;;;;;11.15;100.00;99413.59;5137161;28;20054;-66
2023/08/09 00:12:54;;;;;;;17.63;5.43;;;;;;;11.14;100.00;99420.25;5137307;28;20043;-67
2023/08/09 00:15:20;;;;;;;13.05;6.05;;;;;;;11.14;100.00;99421.03;5137003;28;20051;-68
2023/08/09 00:17:46;;;;;;;10.00;5.57;;;;;;;11.12;100.00;99422.53;5137478;28;20093;-66
2023/08/09 00:20:12;;;;;;;16.67;5.65;;;;;;;11.12;100.00;99420.59;5137099;28;20051;-65
2023/08/09 00:22:38;;;;;;;10.65;5.38;;;;;;;11.10;100.00;99419.38;5137514;28;20142;-67
2023/08/09 00:25:05;;;;;;;12.55;5.68;;;;;;;11.10;100.00;99420.19;5136955;28;20093;-64
2023/08/09 00:27:32;;;;;;;15.98;5.65;;;;;;;11.10;100.00;99416.66;5137184;28;20070;-67
2023/08/09 00:29:58;;;;;;;11.07;5.60;;;;;;;11.03;100.00;99423.56;5136986;28;20046;-67
2023/08/09 00:32:24;;;;;;;16.95;5.68;;;;;;;11.03;100.00;99420.81;5137037;28;20043;-66
2023/08/09 00:34:50;;;;;;;10.75;4.80;;;;;;;11.01;100.00;99422.34;5137106;28;20051;-66
2023/08/09 00:37:16;;;;;;;17.55;6.35;;;;;;;10.97;100.00;99419.53;5136743;27;20539;-64
2023/08/09 00:39:42;;;;;;;9.38;5.10;;;;;;;10.96;100.00;99420.69;5137226;28;20051;-64
2023/08/09 00:42:08;;;;;;;10.55;5.20;;;;;;;10.95;100.00;99424.56;5138827;27;20047;-67
2023/08/09 00:44:35;;;;;;;9.35;5.05;;;;;;;10.94;100.00;99427.69;5140480;28;20140;-65
2023/08/09 00:47:01;;;;;;;13.77;5.63;;;;;;;10.96;100.00;99422.63;5140395;28;20099;-66
2023/08/09 00:49:27;;;;;;;10.52;4.95;;;;;;;10.96;100.00;99428.09;5140814;28;20200;-64
2023/08/09 00:51:53;;;;;;;15.90;5.15;;;;;;;10.91;100.00;99428.41;5140319;28;20043;-66
2023/08/09 00:54:20;;;;;;;9.98;5.30;;;;;;;10.92;100.00;99427.25;5140623;28;20061;-66
2023/08/09 00:56:46;;;;;;;11.32;5.05;;;;;;;10.87;100.00;99431.06;5140196;28;20043;-65
2023/08/09 00:59:12;;;;;;;11.10;5.30;;;;;;;10.88;100.00;99427.16;5140184;28;20090;-65
2023/08/09 01:01:39;;;;;;;12.10;5.60;;;;;;;10.83;100.00;99424.72;5140234;28;20053;-66
2023/08/09 01:04:06;;;;;;;9.95;5.25;;;;;;;10.83;100.00;99425.53;5140095;28;20421;-65
2023/08/09 01:06:41;;;;;;;20.33;5.32;;;;;;;10.80;100.00;99422.69;5140189;28;20396;-65
2023/08/09 01:09:14;;;;;;;9.90;5.32;;;;;;;10.78;100.00;99425.00;5139961;27;20082;-65
2023/08/09 01:11:48;;;;;;;11.35;4.68;;;;;;;10.76;100.00;99425.38;5140397;28;20047;-67
2023/08/09 01:14:16;;;;;;;17.42;5.57;;;;;;;10.77;100.00;99423.41;5139936;28;20111;-67
2023/08/09 01:16:46;;;;;;;9.40;5.38;;;;;;;10.69;100.00;99414.22;5140396;28;20138;-65
2023/08/09 01:19:26;;;;;;;12.80;4.80;;;;;;;10.61;100.00;99417.97;5140101;28;20328;-67
2023/08/09 01:21:57;;;;;;;16.73;5.97;;;;;;;10.63;100.00;99412.13;5139792;28;20054;-64
2023/08/09 01:24:24;;;;;;;14.23;5.72;;;;;;;10.65;100.00;99407.09;5139911;28;20475;-64
2023/08/09 01:26:50;;;;;;;13.32;5.45;;;;;;;10.61;100.00;99409.75;5139833;28;20051;-68
2023/08/09 01:29:16;;;;;;;13.15;5.82;;;;;;;10.62;100.00;99408.59;5139937;28;20434;-66
2023/08/09 01:31:42;;;;;;;14.93;5.70;;;;;;;10.54;100.00;99417.81;5139628;28;20088;-66
2023/08/09 01:34:08;;;;;;;9.02;5.55;;;;;;;10.46;100.00;99418.81;5139856;28;20408;-65
2023/08/09 01:36:41;;;;;;;13.27;5.53;;;;;;;10.41;100.00;99406.19;5139641;28;20126;-66
2023/08/09 01:39:12;;;;;;;15.55;5.70;;;;;;;10.45;100.00;99403.53;5139986;27;20118;-66
2023/08/09 01:41:40;;;;;;;15.18;5.60;;;;;;;10.48;100.00;99400.84;5139517;28;20051;-66
2023/08/09 01:44:07;;;;;;;14.10;5.63;;;;;;;10.48;100.00;99408.28;5139424;28;20055;-65
2023/08/09 01:46:34;;;;;;;11.73;5.88;;;;;;;10.48;100.00;99417.31;5139676;28;20115;-64
2023/08/09 01:49:10;;;;;;;12.07;5.43;;;;;;;10.48;100.00;99419.25;5139540;28;20057;-67
2023/08/09 01:51:36;;;;;;;14.45;5.68;;;;;;;10.46;100.00;99422.38;5139705;28;20054;-66
2023/08/09 01:54:03;;;;;;;11.27;5.20;;;;;;;10.46;100.00;99421.56;5139258;27;20061;-68
2023/08/09 01:56:29;;;;;;;16.02;5.13;;;;;;;10.45;100.00;99426.25;5139634;28;20057;-66
2023/08/09 01:58:55;;;;;;;12.57;5.68;;;;;;;10.45;100.00;99426.25;5139329;28;20051;-67
2023/08/09 02:01:23;;;;;;;17.95;6.03;;;;;;;10.45;100.00;99439.16;5139608;28;20075;-66
2023/08/09 02:03:49;;;;;;;18.92;6.20;;;;;;;10.39;100.00;99435.09;5139150;28;20051;-68
2023/08/09 02:06:15;;;;;;;16.08;6.20;;;;;;;10.38;100.00;99433.50;5139611;28;20051;-65
2023/08/09 02:08:42;;;;;;;19.90;6.05;;;;;;;10.40;100.00;99437.50;5138982;27;20175;-66
2023/08/09 02:11:07;;;;;;;17.42;6.25;;;;;;;10.32;100.00;99433.00;5139217;28;20134;-66
2023/08/09 02:13:34;;;;;;;19.58;6.20;;;;;;;10.33;100.00;99432.66;5139222;28;20186;-65
2023/08/09 02:16:03;;;;;;;12.00;5.85;;;;;;;10.38;100.00;99441.75;5139060;28;20349;-67
2023/08/09 02:18:29;;;;;;;13.55;6.38;;;;;;;10.32;100.00;99442.00;5139269;28;20146;-65
2023/08/09 02:20:55;;;;;;;15.02;6.05;;;;;;;10.36;100.00;99442.06;5139031;28;20302;-66
2023/08/09 02:23:21;;;;;;;16.33;6.28;;;;;;;10.35;100.00;99438.53;5139236;28;20107;-68
2023/08/09 02:25:47;;;;;;;15.23;6.10;;;;;;;10.33;100.00;99440.06;5138917;28;20126;-67
2023/08/09 02:28:13;;;;;;;13.65;5.53;;;;;;;10.33;100.00;99442.81;5139270;28;20423;-67
2023/08/09 02:30:39;;;;;;;17.88;6.40;;;;;;;10.32;100.00;99436.53;5138765;28;20401;-65
2023/08/09 02:33:05;;;;;;;15.27;5.32;;;;;;;10.31;100.00;99437.69;5139129;28;20107;-64
2023/08/09 02:35:46;;;;;;;12.18;5.97;;;;;;;10.32;100.00;99439.25;5138564;28;20043;-66
2023/08/09 02:38:12;;;;;;;10.65;5.40;;;;;;;10.24;100.00;99436.69;5138520;27;20463;-65
2023/08/09 02:40:38;;;;;;;18.63;6.60;;;;;;;10.26;100.00;99437.97;5138672;28;20081;-67
2023/08/09 02:43:04;;;;;;;10.52;5.85;;;;;;;10.27;100.00;99439.53;5138728;28;20086;-67
2023/08/09 02:45:30;;;;;;;14.43;6.00;;;;;;;10.32;100.00;99436.53;5138802;28;20078;-68
2023/08/09 02:47:56;;;;;;;11.23;5.35;;;;;;;10.29;100.00;99442.72;5138402;28;20404;-68
2023/08/09 02:50:22;;;;;;;17.08;6.28;;;;;;;10.27;100.00;99446.97;5138620;28;20191;-65
2023/08/09 02:52:50;;;;;;;16.38;6.68;;;;;;;10.32;100.00;99444.75;5138421;28;20087;-65
2023/08/09 02:55:17;;;;;;;10.63;6.53;;;;;;;10.35;100.00;99454.19;5138626;28;20324;-67
2023/08/09 02:57:43;;;;;;;17.83;5.60;;;;;;;10.33;100.00;99449.09;5138322;28;20102;-65
2023/08/09 03:00:10;;;;;;;10.90;5.35;;;;;;;10.35;100.00;99459.69;5138794;28;20047;-65
2023/08/09 03:02:36;;;;;;;13.07;6.68;;;;;;;10.39;100.00;99465.25;5138196;28;20179;-65
2023/08/09 03:05:04;;;;;;;9.85;5.25;;;;;;;10.43;100.00;99464.19;5137478;27;20092;-67
2023/08/09 03:07:30;;;;;;;14.77;6.07;;;;;;;10.41;100.00;99477.44;5138103;27;20401;-67
2023/08/09 03:09:56;;;;;;;10.48;5.20;;;;;;;10.51;100.00;99467.88;5138005;28;20051;-66
2023/08/09 03:12:22;;;;;;;15.82;6.13;;;;;;;10.56;100.00;99470.34;5138380;28;20146;-66
2023/08/09 03:14:48;;;;;;;12.95;5.70;;;;;;;10.72;100.00;99482.06;5138079;28;20058;-67
2023/08/09 03:17:14;;;;;;;12.80;5.57;;;;;;;10.93;100.00;99486.41;5138307;28;20151;-67
2023/08/09 03:19:39;;;;;;;10.05;4.82;;;;;;;11.21;100.00;99508.19;5138116;28;20051;-68
2023/08/09 03:22:05;;;;;;;10.93;5.20;;;;;;;11.77;100.00;99516.75;5138176;28;20472;-68
2023/08/09 03:24:32;;;;;;;12.35;4.78;;;;;;;12.18;100.00;99500.63;5137906;28;20145;-68
2023/08/09 03:26:58;;;;;;;8.68;4.88;;;;;;;12.65;100.00;99435.34;5138208;28;20043;-68
2023/08/09 03:29:24;;;;;;;7.78;4.72;;;;;;;12.92;100.00;99258.00;5137826;28;20145;-68
2023/08/09 03:31:50;;;;;;;12.95;4.53;;;;;;;13.31;100.00;99018.06;5138162;28;20051;-67
2023/08/09 03:34:16;;;;;;;8.73;4.18;;;;;;;13.71;100.00;98830.91;5137549;28;20456;-65
2023/08/09 03:36:41;;;;;;;9.82;3.92;;;;;;;14.13;100.00;98615.06;5137698;28;20051;-65
2023/08/09 03:39:08;;;;;;;14.25;4.05;;;;;;;14.41;100.00;98425.81;5137893;27;20098;-64
2023/08/09 03:41:34;;;;;;;13.43;4.43;;;;;;;14.61;100.00;98269.59;5137820;28;20047;-68
2023/08/09 03:44:00;;;;;;;10.30;4.13;;;;;;;14.66;100.00;98197.44;5137888;28;20188;-68
2023/08/09 03:46:26;;;;;;;9.20;4.93;;;;;;;14.89;100.00;98179.34;5137679;28;20067;-69
2023/08/09 03:48:52;;;;;;;14.88;4.43;;;;;;;15.15;100.00;98125.31;5137927;28;20126;-68
2023/08/09 03:51:18;;;;;;;14.88;4.65;;;;;;;15.38;100.00;98091.38;5137359;28;20138;-68
2023/08/09 03:53:44;;;;;;;10.50;4.10;;;;;;;15.77;100.00;98085.13;5137754;28;20047;-67
2023/08/09 03:56:10;;;;;;;7.97;4.40;;;;;;;15.86;100.00;98085.31;5137350;28;20086;-68
2023/08/09 03:58:37;;;;;;;5.72;3.90;;;;;;;16.13;100.00;98101.75;5137813;28;20047;-66
2023/08/09 04:01:03;;;;;;;8.27;5.53;;;;;;;16.30;100.00;98121.91;5137328;28;20043;-67
2023/08/09 04:03:29;;;;;;;8.50;4.10;;;;;;;17.00;100.00;98153.94;5137527;28;20081;-68
2023/08/09 04:05:55;;;;;;;5.65;3.88;;;;;;;17.06;100.00;98220.63;5137513;28;20145;-69
2023/08/09 04:08:25;;;;;;;8.88;3.67;;;;;;;17.48;100.00;98274.25;5137192;27;20051;-66
2023/08/09 04:10:52;;;;;;;8.27;3.97;;;;;;;17.37;100.00;98293.91;5137524;28;20302;-68
2023/08/09 04:13:19;;;;;;;9.95;5.47;;;;;;;17.92;100.00;98294.16;5137281;28;20055;-67
2023/08/09 04:15:45;;;;;;;4.85;3.72;;;;;;;17.68;100.00;98370.38;5137438;27;20320;-67
2023/08/09 04:18:11;;;;;;;13.68;4.40;;;;;;;17.97;100.00;98351.09;5140789;28;20055;-66
2023/08/09 04:20:38;;;;;;;5.50;3.53;;;;;;;18.27;100.00;98417.31;5141187;28;20054;-66
2023/08/09 04:23:04;;;;;;;8.88;3.60;;;;;;;18.52;100.00;98424.97;5140887;28;20328;-67
2023/08/09 04:25:30;;;;;;;9.32;3.65;;;;;;;18.84;100.00;98455.94;5140631;28;20150;-68
2023/08/09 04:27:56;;;;;;;8.85;3.83;;;;;;;18.81;100.00;98499.22;5140719;28;20047;-69
2023/08/09 04:30:23;;;;;;;11.27;3.88;;;;;;;19.11;100.00;98489.69;5141033;28;20047;-65
2023/08/09 04:32:49;;;;;;;11.07;3.65;;;;;;;19.38;100.00;98519.91;5140609;28;20053;-68
2023/08/09 04:35:15;;;;;;;11.30;3.50;;;;;;;19.70;100.00;98509.91;5140438;28;20146;-67
2023/08/09 04:37:41;;;;;;;9.13;4.43;;;;;;;19.73;100.00;98539.63;5140576;27;20421;-69
2023/08/09 04:40:10;;;;;;;10.85;4.18;;;;;;;20.10;100.00;98529.75;5140643;28;20137;-68
2023/08/09 04:42:37;;;;;;;7.68;4.15;;;;;;;19.77;100.00;98572.88;5140579;28;20412;-68
2023/08/09 04:45:04;;;;;;;6.18;3.70;;;;;;;20.40;100.00;98556.25;5140571;28;20077;-69
2023/08/09 04:47:30;;;;;;;14.38;5.22;;;;;;;20.76;100.00;98579.41;5140810;28;20104;-69
2023/08/09 04:49:57;;;;;;;12.88;7.00;;;;;;;20.55;100.00;98598.34;5140254;28;20424;-67
2023/08/09 04:52:23;;;;;;;11.00;4.45;;;;;;;21.00;100.00;98611.25;5140698;28;20142;-69
2023/08/09 04:54:49;;;;;;;7.53;4.47;;;;;;;21.34;100.00;98629.22;5140187;28;20145;-68
2023/08/09 04:57:15;;;;;;;9.25;4.20;;;;;;;21.68;100.00;98631.22;5140688;28;20047;-68
2023/08/09 04:59:41;;;;;;;9.13;3.30;;;;;;;21.71;100.00;98691.69;5140092;28;20179;-67
2023/08/09 05:02:06;;;;;;;6.80;3.45;;;;;;;21.72;100.00;98723.94;5140071;28;20076;-66
2023/08/09 05:04:32;;;;;;;7.65;3.45;;;;;;;22.31;100.00;98727.06;5140288;28;20050;-67
2023/08/09 05:07:00;;;;;;;11.10;3.95;;;;;;;22.57;100.00;98768.84;5139886;28;20051;-68
2023/08/09 05:09:27;;;;;;;9.55;4.85;;;;;;;22.73;100.00;98771.41;5140208;27;20062;-68
2023/08/09 05:11:52;;;;;;;9.70;3.20;;;;;;;23.11;100.00;98770.38;5139908;28;20047;-69
2023/08/09 05:14:18;;;;;;;7.30;3.40;;;;;;;23.01;100.00;98789.13;5140076;28;20388;-69
2023/08/09 05:16:44;;;;;;;12.00;4.15;;;;;;;22.74;100.00;98761.78;5139540;28;20088;-69
2023/08/09 05:19:10;;;;;;;10.43;3.42;;;;;;;23.39;100.00;98779.63;5139917;28;20423;-68
2023/08/09 05:21:36;;;;;;;8.50;4.32;;;;;;;23.63;100.00;98797.44;5139579;28;20086;-69
2023/08/09 05:24:04;;;;;;;11.43;4.25;;;;;;;23.78;100.00;98799.66;5139969;28;20111;-65
2023/08/09 05:26:29;;;;;;;8.50;3.83;;;;;;;23.74;100.00;98794.22;5139402;28;20055;-64
2023/08/09 05:28:55;;;;;;;7.45;3.83;;;;;;;23.91;100.00;98798.28;5139558;27;20470;-65
2023/08/09 05:31:21;;;;;;;8.00;3.90;;;;;;;24.35;100.00;98794.41;5139498;28;20134;-67
2023/08/09 05:33:47;;;;;;;12.23;6.13;;;;;;;24.84;100.00;98825.06;5139509;28;20057;-65
2023/08/09 05:36:14;;;;;;;13.10;6.07;;;;;;;24.74;100.00;98829.13;5139570;28;20055;-67
2023/08/09 05:38:39;;;;;;;12.57;6.40;;;;;;;24.67;100.00;98828.69;5139421;27;20082;-62
2023/08/09 05:41:07;;;;;;;10.88;6.10;;;;;;;25.18;100.00;98823.13;5139460;28;20066;-63
2023/08/09 05:43:33;;;;;;;17.27;6.20;;;;;;;25.08;100.00;98824.38;5139198;28;20043;-64
2023/08/09 05:45:59;;;;;;;10.02;5.03;;;;;;;24.91;100.00;98829.56;5139585;28;20047;-65
2023/08/09 05:48:25;;;;;;;9.00;5.18;;;;;;;25.55;100.00;98817.34;5139186;28;20416;-69
2023/08/09 05:50:51;;;;;;;12.32;5.35;;;;;;;25.84;100.00;98833.59;5139395;28;20051;-70
2023/08/09 05:53:18;;;;;;;13.65;5.72;;;;;;;26.16;92.83;98842.47;5139156;28;20047;-72
2023/08/09 05:55:44;;;;;;;14.95;5.97;;;;;;;26.05;89.81;98848.59;5139426;28;20058;-65
2023/08/09 05:58:11;;;;;;;11.43;5.43;;;;;;;26.50;83.08;98855.94;5138951;28;20086;-72
2023/08/09 06:00:37;;;;;;;12.55;5.95;;;;;;;26.35;88.19;98852.28;5139226;28;20114;-68
2023/08/09 06:03:04;;;;;;;13.20;4.85;;;;;;;26.55;95.12;98837.63;5139081;28;20050;-71
2023/08/09 06:05:30;;;;;;;7.35;3.92;;;;;;;26.29;87.38;98848.56;5138868;28;20412;-68
2023/08/09 06:07:56;;;;;;;19.48;4.80;;;;;;;26.58;95.89;98845.09;5139248;27;20055;-70
2023/08/09 06:10:23;;;;;;;10.60;4.53;;;;;;;26.52;95.69;98841.41;5138953;28;20043;-67
2023/08/09 06:12:49;;;;;;;9.38;3.70;;;;;;;26.71;89.21;98847.66;5138993;28;20400;-70
2023/08/09 06:15:16;;;;;;;8.07;4.00;;;;;;;26.41;86.68;98853.19;5138618;28;20051;-64
2023/08/09 06:17:42;;;;;;;11.77;3.63;;;;;;;26.44;86.68;98855.03;5139150;28;20051;-68
2023/08/09 06:20:12;;;;;;;6.55;3.63;;;;;;;26.78;80.24;98857.72;5138771;28;20058;-65
2023/08/09 06:22:38;;;;;;;6.60;3.58;;;;;;;26.69;75.00;98864.22;5138993;28;20085;-64
2023/08/09 06:25:05;;;;;;;11.90;3.90;;;;;;;27.25;74.21;98856.03;5138550;28;20507;-63
2023/08/09 06:27:31;;;;;;;9.77;4.55;;;;;;;27.51;74.52;98862.59;5138260;28;20074;-63
2023/08/09 06:29:57;;;;;;;9.45;4.70;;;;;;;27.10;75.19;98861.63;5138510;28;20404;-66
2023/08/09 06:32:23;;;;;;;13.20;4.25;;;;;;;27.13;77.42;98858.66;5138731;28;20097;-69
2023/08/09 06:34:49;;;;;;;8.52;4.60;;;;;;;26.80;76.13;98856.00;5138543;28;20137;-67
2023/08/09 06:37:15;;;;;;;12.30;4.68;;;;;;;27.16;74.09;98859.72;5138537;27;20111;-69
2023/08/09 06:39:41;;;;;;;9.45;4.28;;;;;;;27.68;68.11;98862.84;5137402;27;20138;-63
2023/08/09 06:42:08;;;;;;;9.05;4.13;;;;;;;28.04;68.96;98861.59;5138428;28;20062;-62
2023/08/09 06:44:34;;;;;;;8.93;4.03;;;;;;;27.49;68.61;98861.50;5138419;28;20142;-65
2023/08/09 06:47:00;;;;;;;9.07;4.28;;;;;;;27.66;71.13;98871.78;5138113;28;20058;-66
2023/08/09 06:49:26;;;;;;;11.32;3.95;;;;;;;27.40;66.65;98871.63;5138643;28;20061;-67
2023/08/09 06:51:54;;;;;;;8.23;4.00;;;;;;;27.75;69.67;98865.25;5138162;28;20069;-68
2023/08/09 06:54:20;;;;;;;7.78;4.10;;;;;;;28.13;63.48;98869.91;5138443;28;20108;-64
2023/08/09 06:56:46;;;;;;;11.57;3.80;;;;;;;28.26;65.33;98874.44;5137813;28;20146;-63
2023/08/09 06:59:12;;;;;;;8.05;3.90;;;;;;;28.82;66.27;98869.44;5138018;28;20134;-67
2023/08/09 07:01:38;;;;;;;10.52;4.18;;;;;;;28.74;64.02;98874.75;5138132;28;20150;-67
2023/08/09 07:04:05;;;;;;;11.30;4.72;;;;;;;28.32;64.26;98878.06;5138117;28;20435;-67
2023/08/09 07:06:31;;;;;;;11.45;4.90;;;;;;;28.60;65.19;98872.81;5137875;28;20146;-65
2023/08/09 07:08:57;;;;;;;12.82;4.25;;;;;;;28.68;68.92;98867.50;5137683;27;20495;-64
2023/08/09 07:11:23;;;;;;;6.50;3.03;;;;;;;27.40;61.35;98873.69;5138023;28;20053;-64
2023/08/09 07:13:49;;;;;;;10.60;3.10;;;;;;;27.74;60.71;98871.38;5137603;28;20047;-62
2023/08/09 07:16:15;;;;;;;4.53;2.92;;;;;;;27.92;60.97;98871.16;5137975;28;20141;-63
2023/08/09 07:18:41;;;;;;;4.95;3.00;;;;;;;27.33;62.78;98874.09;5137752;28;20051;-65
2023/08/09 07:21:07;;;;;;;6.38;2.70;;;;;;;26.94;65.47;98874.91;5138138;28;20090;-65
2023/08/09 07:23:34;;;;;;;3.72;2.75;;;;;;;26.97;64.96;98871.13;5137805;28;20050;-66
2023/08/09 07:26:00;;;;;;;4.50;2.40;;;;;;;27.93;63.69;98875.53;5138163;28;20142;-66
2023/08/09 07:28:26;;;;;;;2.85;2.55;;;;;;;28.29;63.61;98868.59;5137923;28;20137;-62
2023/08/09 07:30:52;;;;;;;3.40;2.58;;;;;;;28.73;66.17;98869.63;5137712;28;20198;-62
2023/08/09 07:33:21;;;;;;;4.95;2.67;;;;;;;29.15;63.21;98873.91;5137711;28;20126;-63
2023/08/09 07:35:48;;;;;;;4.18;2.03;;;;;;;28.14;63.83;98867.88;5137362;28;20424;-66
2023/08/09 07:38:14;;;;;;;5.13;2.90;;;;;;;28.15;62.94;98870.19;5137659;27;20051;-63
2023/08/09 07:40:41;;;;;;;3.65;2.47;;;;;;;28.67;65.88;98877.25;5137344;28;20051;-64
2023/08/09 07:43:07;;;;;;;5.90;2.58;;;;;;;28.13;62.78;98867.09;5137741;28;20142;-64
2023/08/09 07:45:33;;;;;;;8.07;2.80;;;;;;;27.32;64.63;98878.91;5137267;28;20073;-66
2023/08/09 07:47:59;;;;;;;7.50;2.60;;;;;;;27.16;64.44;98871.00;5137464;28;20042;-63
2023/08/09 07:50:25;;;;;;;5.93;2.67;;;;;;;27.20;66.07;98875.16;5137036;27;20141;-65
2023/08/09 07:52:51;;;;;;;8.55;2.60;;;;;;;27.97;64.50;98869.69;5137530;28;20058;-64
2023/08/09 07:55:18;;;;;;;6.15;2.20;;;;;;;27.09;62.13;98879.75;5136965;28;20160;-65
2023/08/09 07:57:45;;;;;;;4.75;2.50;;;;;;;28.34;60.59;98870.69;5137346;28;20058;-62
2023/08/09 08:00:12;;;;;;;5.45;2.13;;;;;;;28.47;62.01;98867.53;5137528;28;20096;-63
2023/08/09 08:02:38;;;;;;;4.32;2.53;;;;;;;29.27;62.69;98870.69;5137186;28;20055;-62
2023/08/09 08:05:05;;;;;;;5.72;2.58;;;;;;;29.15;59.92;98877.47;5137415;28;20081;-63
2023/08/09 08:07:32;;;;;;;5.18;2.22;;;;;;;28.89;59.80;98876.69;5136895;27;20062;-63
2023/08/09 08:09:58;;;;;;;6.30;2.60;;;;;;;28.84;58.59;98872.56;5137170;28;20083;-66
2023/08/09 08:12:26;;;;;;;4.57;2.33;;;;;;;28.56;59.95;98884.31;5136896;28;20434;-66
2023/08/09 08:14:54;;;;;;;3.95;2.40;;;;;;;28.94;59.68;98881.63;5137187;28;20054;-61
2023/08/09 08:17:21;;;;;;;2.60;2.17;;;;;;;28.79;58.47;98882.50;5136785;28;20051;-65
2023/08/09 08:19:47;;;;;;;4.05;1.88;;;;;;;28.67;57.72;98877.25;5137153;28;20432;-63
2023/08/09 08:22:13;;;;;;;4.90;2.20;;;;;;;27.13;60.75;98883.97;5136685;28;20047;-64
2023/08/09 08:24:39;;;;;;;4.10;2.10;;;;;;;28.34;58.30;98881.97;5136722;28;20363;-62
2023/08/09 08:27:06;;;;;;;4.38;2.50;;;;;;;28.58;58.89;98887.41;5136471;28;20055;-63
2023/08/09 08:29:32;;;;;;;4.82;2.30;;;;;;;28.33;57.98;98883.22;5136708;28;20043;-62
2023/08/09 08:31:58;;;;;;;1.90;1.80;;;;;;;28.27;58.38;98879.56;5136618;28;20138;-63
2023/08/09 08:34:31;;;;;;;4.32;2.00;;;;;;;28.25;56.68;98882.09;5136500;28;20062;-63
2023/08/09 08:36:57;;;;;;;2.17;1.75;;;;;;;28.32;61.92;98883.72;5136804;28;20051;-67
2023/08/09 08:39:23;;;;;;;7.45;2.50;;;;;;;28.79;60.56;98887.34;5136580;27;20043;-63
2023/08/09 08:41:50;;;;;;;2.05;1.55;;;;;;;28.82;59.22;98883.53;5137020;28;20134;-63
2023/08/09 08:44:16;;;;;;;3.45;2.47;;;;;;;28.85;62.98;98886.16;5136567;28;20062;-65
2023/08/09 08:46:43;;;;;;;2.92;1.98;;;;;;;27.57;60.39;98888.78;5137063;28;20097;-65
2023/08/09 08:49:13;;;;;;;2.15;1.90;;;;;;;28.18;62.32;98881.75;5136491;28;20341;-70
2023/08/09 08:51:42;;;;;;;3.53;1.83;;;;;;;28.11;61.36;98889.34;5136726;28;20266;-64
2023/08/09 08:54:08;;;;;;;6.65;2.40;;;;;;;29.25;61.15;98884.50;5136530;28;20051;-66
2023/08/09 08:56:34;;;;;;;4.85;1.90;;;;;;;29.48;61.73;98884.69;5136447;28;20138;-62
2023/08/09 08:59:01;;;;;;;2.83;1.75;;;;;;;28.48;59.02;98886.00;5136441;28;20372;-65
2023/08/09 09:01:28;;;;;;;2.67;1.90;;;;;;;28.75;58.16;98898.88;5136221;27;20416;-65
2023/08/09 09:03:54;;;;;;;7.18;1.73;;;;;;;27.83;60.08;98902.28;5139591;28;20138;-63
2023/08/09 09:06:20;;;;;;;4.55;2.45;;;;;;;27.02;61.55;98897.03;5139691;28;20062;-62
2023/08/09 09:08:53;;;;;;;3.35;1.73;;;;;;;26.11;63.97;98891.63;5140169;27;20112;-62
2023/08/09 09:11:21;;;;;;;4.05;1.75;;;;;;;25.48;69.31;98899.09;5140224;28;20195;-67
2023/08/09 09:13:50;;;;;;;2.42;1.70;;;;;;;25.86;70.37;98901.31;5140410;28;20070;-68
2023/08/09 09:16:17;;;;;;;2.35;1.92;;;;;;;24.90;74.83;98892.50;5139566;28;20055;-63
2023/08/09 09:18:45;;;;;;;3.13;1.92;;;;;;;24.68;76.01;98897.50;5139886;28;20062;-63
2023/08/09 09:21:11;;;;;;;4.53;2.25;;;;;;;24.06;79.46;98890.88;5140263;28;20058;-62
2023/08/09 09:23:38;;;;;;;2.78;2.05;;;;;;;24.49;81.61;98883.50;5139736;28;20133;-66
2023/08/09 09:26:09;;;;;;;5.72;2.17;;;;;;;25.11;75.37;98896.34;5139958;28;20051;-67
2023/08/09 09:28:41;;;;;;;4.32;2.03;;;;;;;26.57;72.39;98896.97;5139625;28;20156;-65
2023/08/09 09:31:07;;;;;;;5.75;1.90;;;;;;;27.33;69.77;98890.97;5139817;28;20058;-67
2023/08/09 09:33:33;;;;;;;3.58;2.08;;;;;;;27.91;68.20;98903.41;5139542;28;20048;-64
2023/08/09 09:35:59;;;;;;;3.13;1.80;;;;;;;26.70;66.23;98900.28;5139704;28;20141;-67
2023/08/09 09:38:25;;;;;;;5.47;1.70;;;;;;;27.81;64.27;98899.94;5139351;27;20051;-67
2023/08/09 09:40:52;;;;;;;3.28;1.80;;;;;;;27.75;58.47;98898.28;5139329;28;20051;-64
2023/08/09 09:43:19;;;;;;;2.42;1.70;;;;;;;27.09;61.40;98894.63;5139247;28;20129;-67
2023/08/09 09:45:45;;;;;;;2.15;1.77;;;;;;;28.38;62.97;98888.16;5139249;28;20179;-65
2023/08/09 09:48:16;;;;;;;4.32;2.10;;;;;;;28.35;60.72;98894.00;5139029;28;20051;-62
2023/08/09 09:50:43;;;;;;;3.95;2.22;;;;;;;29.08;57.66;98898.47;5139169;28;20043;-67
2023/08/09 09:53:11;;;;;;;5.45;1.77;;;;;;;28.52;58.81;98902.69;5139283;28;20058;-66
2023/08/09 09:55:38;;;;;;;5.30;2.08;;;;;;;27.54;61.69;98911.53;5139034;28;20047;-68
2023/08/09 09:58:05;;;;;;;4.55;1.77;;;;;;;27.61;64.66;98906.25;5139448;28;20043;-63
2023/08/09 10:00:32;;;;;;;4.10;1.80;;;;;;;28.16;60.86;98899.16;5138881;28;20313;-65
2023/08/09 10:03:00;;;;;;;5.63;1.92;;;;;;;29.11;60.25;98898.75;5139180;28;20086;-62
2023/08/09 10:05:29;;;;;;;2.85;2.30;;;;;;;28.69;63.81;98897.25;5138783;28;20433;-66
2023/08/09 10:07:57;;;;;;;5.55;1.90;;;;;;;28.43;62.52;98900.81;5139198;27;20130;-67
2023/08/09 10:10:23;;;;;;;2.15;1.90;;;;;;;29.13;62.54;98891.34;5139011;28;20349;-64
2023/08/09 10:12:53;;;;;;;4.20;1.70;;;;;;;27.33;57.40;98907.84;5138991;28;20111;-67
2023/08/09 10:15:24;;;;;;;2.55;1.60;;;;;;;27.40;58.52;98901.84;5138973;28;20144;-64
2023/08/09 10:17:52;;;;;;;3.70;1.90;;;;;;;26.98;60.96;98905.66;5138772;28;20154;-63
2023/08/09 10:20:20;;;;;;;3.60;1.90;;;;;;;26.79;65.76;98909.91;5139017;28;20053;-66
2023/08/09 10:22:48;;;;;;;4.80;2.17;;;;;;;27.76;63.67;98911.06;5138660;28;20098;-64
2023/08/09 10:25:14;;;;;;;9.38;1.90;;;;;;;27.20;62.07;98903.28;5138994;28;20066;-65
2023/08/09 10:27:49;;;;;;;3.65;1.42;;;;;;;27.47;59.29;98895.03;5138620;28;20051;-64
2023/08/09 10:30:15;;;;;;;2.72;1.40;;;;;;;25.47;65.01;98905.97;5139099;28;20047;-65
2023/08/09 10:32:52;;;;;;;2.42;1.40;;;;;;;25.81;64.20;98897.09;5138374;28;20051;-66
2023/08/09 10:35:20;;;;;;;3.20;1.60;;;;;;;25.54;66.37;98903.59;5138456;28;20078;-64
2023/08/09 10:37:47;;;;;;;2.85;1.67;;;;;;;25.59;69.30;98902.16;5138533;27;20051;-63
2023/08/09 10:40:15;;;;;;;3.80;1.80;;;;;;;25.41;75.18;98902.22;5138549;28;20078;-64
2023/08/09 10:42:44;;;;;;;5.25;2.70;;;;;;;24.81;81.57;98898.88;5138609;28;20043;-62
2023/08/09 10:45:11;;;;;;;3.30;1.73;;;;;;;24.36;78.81;98894.81;5138244;28;20470;-64
2023/08/09 10:47:40;;;;;;;3.90;1.80;;;;;;;24.54;78.56;98890.50;5138576;28;20044;-63
2023/08/09 10:50:07;;;;;;;4.10;1.60;;;;;;;24.96;76.60;98896.25;5138063;28;20126;-66
2023/08/09 10:52:35;;;;;;;2.17;1.45;;;;;;;25.12;69.55;98892.31;5138592;28;20043;-66
2023/08/09 10:55:26;;;;;;;4.75;1.50;;;;;;;25.52;71.49;98891.28;5137995;28;20051;-65
2023/08/09 10:57:53;;;;;;;3.88;2.40;;;;;;;25.86;65.92;98887.28;5138211;28;20051;-64
2023/08/09 11:00:22;;;;;;;2.75;2.13;;;;;;;25.60;68.37;98889.69;5138107;28;20043;-64
2023/08/09 11:02:49;;;;;;;2.30;1.73;;;;;;;25.63;68.37;98896.41;5138052;28;20111;-68
2023/08/09 11:05:16;;;;;;;3.67;1.52;;;;;;;25.15;70.02;98888.59;5138241;28;20130;-64
2023/08/09 11:07:42;;;;;;;3.40;1.60;;;;;;;26.20;68.84;98882.38;5137959;27;20112;-62
2023/08/09 11:10:09;;;;;;;5.22;2.10;;;;;;;25.90;69.81;98884.28;5138332;28;20143;-67
2023/08/09 11:12:36;;;;;;;5.50;2.00;;;;;;;25.56;72.41;98886.28;5137926;28;20053;-64
2023/08/09 11:15:02;;;;;;;4.78;2.15;;;;;;;24.84;73.64;98897.19;5138176;28;20054;-62
2023/08/09 11:17:28;;;;;;;5.70;2.10;;;;;;;24.90;78.81;98889.69;5137798;28;20050;-67
2023/08/09 11:19:54;;;;;;;2.08;1.80;;;;;;;24.22;76.75;98905.84;5138234;28;20400;-66
2023/08/09 11:22:20;;;;;;;2.95;2.13;;;;;;;23.84;77.08;98893.78;5137724;28;20053;-63
2023/08/09 11:24:46;;;;;;;3.63;2.00;;;;;;;24.27;78.74;98894.81;5137553;27;20522;-66